CST,Max TemperatureF,Mean TemperatureF,Min TemperatureF,Max Dew PointF,MeanDew PointF,Min DewpointF,Max Humidity, Mean Humidity, Min Humidity, Max Sea Level PressureIn, Mean Sea Level PressureIn, Min Sea Level PressureIn, Max VisibilityMiles, Mean VisibilityMiles, Min VisibilityMiles, Max Wind SpeedMPH, Mean Wind SpeedMPH, Max Gust SpeedMPH,PrecipitationIn, CloudCover, Events, WindDirDegrees
2013-1-1,14,7,0,10,0,-4,92,72,48,30.09,30.01,29.94,10,10,5,14,6,17,0.00,4,Snow,261
2013-1-2,23,18,12,14,12,10,100,80,63,29.96,29.93,29.89,10,8,2,8,4,,0.00,8,Snow,214
2013-1-3,21,18,12,18,13,7,93,80,68,30.01,29.96,29.85,10,8,4,18,8,28,0.00,5,Snow,268
2013-1-4,32,22,12,19,13,7,100,76,55,30.06,29.92,29.83,10,10,10,20,11,29,0.00,1,,265
2013-1-5,30,16,3,23,13,0,100,80,51,30.08,29.91,29.77,10,10,2,10,2,10,0.00,2,,211
2013-1-6,26,18,10,27,18,7,100,84,69,30.11,29.99,29.78,10,9,2,14,6,20,0.00,6,Snow,325
2013-1-7,33,24,14,21,17,7,93,72,60,30.07,29.85,29.76,10,10,10,18,9,30,0.00,0,,222
2013-1-8,41,24,8,28,20,5,100,80,42,30.00,29.88,29.71,10,8,0,17,5,25,0.00,1,Fog,189
2013-1-9,33,27,19,28,22,14,93,71,56,30.34,30.00,29.71,10,10,10,29,15,40,0.00,4,,264
2013-1-10,41,29,17,32,17,9,100,63,26,30.37,30.18,29.81,10,10,3,12,4,21,0.11,2,Rain,167
2013-1-11,41,36,32,41,35,32,100,100,100,29.81,29.59,29.43,10,3,0,12,6,21,0.03,8,Fog-Rain-Snow,173
2013-1-12,42,28,14,43,24,9,100,82,68,29.89,29.63,29.37,10,9,2,33,14,41,0.00,8,Rain-Snow,242
2013-1-13,15,10,5,9,6,0,85,73,62,30.03,29.91,29.85,10,9,2,12,7,17,0.00,8,Snow,303
2013-1-14,14,8,0,5,1,-4,85,76,62,30.25,30.20,30.04,10,10,7,14,9,22,0.00,5,Snow,255
2013-1-15,26,13,0,14,7,-4,85,68,46,30.24,30.06,29.78,10,10,10,16,5,24,0.00,4,Snow,216
2013-1-16,26,19,10,27,15,0,100,75,58,30.01,29.70,29.50,10,8,2,21,12,25,0.00,7,Snow,277
2013-1-17,10,3,-4,0,-5,-8,85,66,52,30.24,30.18,30.03,10,10,3,15,8,20,0.00,3,Snow,290
2013-1-18,21,8,-5,19,8,-11,93,83,77,30.23,29.89,29.67,10,7,0,9,2,,0.00,7,Snow,158
2013-1-19,33,18,3,30,19,-4,100,87,66,29.80,29.62,29.45,10,5,0,28,8,39,0.05,8,Snow,274
2013-1-20,5,-1,-7,0,-7,-13,78,70,56,30.11,30.03,29.82,10,8,2,16,11,26,0.00,4,Snow,290
2013-1-21,-5,-10,-14,-11,-20,-27,77,64,49,30.05,30.01,29.96,10,9,4,16,10,24,0.00,7,Snow,282
2013-1-22,0,-8,-16,-15,-19,-24,71,63,51,30.16,30.11,30.04,10,10,10,10,7,10,0.00,2,,268
2013-1-23,8,-7,-22,0,-11,-29,78,72,61,30.35,30.09,29.94,10,7,1,17,5,24,0.00,6,Snow,311
2013-1-24,6,-6,-18,1,-9,-26,85,68,52,30.53,30.41,30.20,10,8,1,7,2,,0.00,4,Snow,204
2013-1-25,14,10,6,9,6,1,85,80,67,30.18,29.95,29.81,10,5,0,9,6,16,0.00,7,Snow,243
2013-1-26,21,13,5,12,8,1,85,73,63,30.27,30.20,30.08,10,9,4,10,6,,0.07,6,Snow,262
2013-1-27,30,24,19,28,18,10,100,77,55,30.17,30.04,29.81,10,7,1,12,6,17,0.00,7,Snow,163
2013-1-28,32,29,26,30,28,25,100,95,75,29.85,29.81,29.73,10,8,1,8,2,,0.20,6,Snow,149
2013-1-29,33,32,30,34,31,30,100,99,93,29.71,29.54,29.44,10,6,0,13,7,21,0.75,8,Fog-Snow,352
2013-1-30,28,20,12,28,16,5,100,88,73,29.54,29.42,29.36,10,4,0,20,14,26,0.00,8,Snow,355
2013-1-31,12,6,1,5,0,-4,85,74,62,29.93,29.68,29.44,10,6,0,18,11,26,0.00,7,Snow,302